sensor_id;sensor_type;location;lat;lon;timestamp;P1;durP1;ratioP1;P2;durP2;ratioP2
13897;SDS011;7019;50.766;4.474;2022-09-06T00:00:21;19.90;;;10.50;;
13897;SDS011;7019;50.766;4.474;2022-09-06T00:02:49;11.43;;;7.53;;
13897;SDS011;7019;50.766;4.474;2022-09-06T00:05:17;9.13;;;7.97;;
13897;SDS011;7019;50.766;4.474;2022-09-06T00:07:44;7.43;;;6.73;;
13897;SDS011;7019;50.766;4.474;2022-09-06T00:10:11;9.90;;;7.47;;
13897;SDS011;7019;50.766;4.474;2022-09-06T00:12:39;7.93;;;6.77;;
13897;SDS011;7019;50.766;4.474;2022-09-06T00:15:06;7.33;;;6.53;;
13897;SDS011;7019;50.766;4.474;2022-09-06T00:17:35;8.83;;;7.80;;
13897;SDS011;7019;50.766;4.474;2022-09-06T00:20:04;8.57;;;7.00;;
13897;SDS011;7019;50.766;4.474;2022-09-06T00:22:33;8.73;;;6.33;;
13897;SDS011;7019;50.766;4.474;2022-09-06T00:25:00;7.30;;;6.37;;
13897;SDS011;7019;50.766;4.474;2022-09-06T00:27:27;6.37;;;5.77;;
13897;SDS011;7019;50.766;4.474;2022-09-06T00:29:54;6.20;;;5.60;;
13897;SDS011;7019;50.766;4.474;2022-09-06T00:32:22;6.70;;;6.10;;
13897;SDS011;7019;50.766;4.474;2022-09-06T00:34:49;8.83;;;6.20;;
13897;SDS011;7019;50.766;4.474;2022-09-06T00:37:17;9.57;;;7.53;;
13897;SDS011;7019;50.766;4.474;2022-09-06T00:39:44;11.17;;;7.20;;
13897;SDS011;7019;50.766;4.474;2022-09-06T00:42:11;9.27;;;6.60;;
13897;SDS011;7019;50.766;4.474;2022-09-06T00:44:39;7.20;;;6.50;;
13897;SDS011;7019;50.766;4.474;2022-09-06T00:47:06;8.17;;;7.37;;
13897;SDS011;7019;50.766;4.474;2022-09-06T00:49:35;7.17;;;5.37;;
13897;SDS011;7019;50.766;4.474;2022-09-06T00:52:06;6.40;;;5.07;;
13897;SDS011;7019;50.766;4.474;2022-09-06T00:54:37;6.30;;;5.33;;
13897;SDS011;7019;50.766;4.474;2022-09-06T00:57:05;8.13;;;7.37;;
13897;SDS011;7019;50.766;4.474;2022-09-06T00:59:33;9.23;;;7.97;;
13897;SDS011;7019;50.766;4.474;2022-09-06T01:02:02;9.67;;;7.57;;
13897;SDS011;7019;50.766;4.474;2022-09-06T01:04:31;8.07;;;6.90;;
13897;SDS011;7019;50.766;4.474;2022-09-06T01:07:00;7.47;;;6.70;;
13897;SDS011;7019;50.766;4.474;2022-09-06T01:09:36;7.97;;;6.13;;
13897;SDS011;7019;50.766;4.474;2022-09-06T01:12:19;6.53;;;5.93;;
13897;SDS011;7019;50.766;4.474;2022-09-06T01:15:00;9.53;;;6.80;;
13897;SDS011;7019;50.766;4.474;2022-09-06T01:17:37;6.70;;;6.10;;
13897;SDS011;7019;50.766;4.474;2022-09-06T01:23:24;5.97;;;5.47;;
13897;SDS011;7019;50.766;4.474;2022-09-06T01:26:32;5.97;;;5.37;;
13897;SDS011;7019;50.766;4.474;2022-09-06T01:29:27;6.40;;;5.80;;
13897;SDS011;7019;50.766;4.474;2022-09-06T01:31:59;8.23;;;7.43;;
13897;SDS011;7019;50.766;4.474;2022-09-06T01:34:33;6.57;;;5.90;;
13897;SDS011;7019;50.766;4.474;2022-09-06T01:37:07;6.53;;;5.83;;
13897;SDS011;7019;50.766;4.474;2022-09-06T01:39:37;8.23;;;6.27;;
13897;SDS011;7019;50.766;4.474;2022-09-06T01:42:06;6.93;;;6.20;;
13897;SDS011;7019;50.766;4.474;2022-09-06T01:44:40;8.13;;;6.80;;
13897;SDS011;7019;50.766;4.474;2022-09-06T01:47:14;7.10;;;6.40;;
13897;SDS011;7019;50.766;4.474;2022-09-06T01:49:50;6.93;;;6.23;;
13897;SDS011;7019;50.766;4.474;2022-09-06T01:52:28;6.87;;;6.27;;
13897;SDS011;7019;50.766;4.474;2022-09-06T01:55:06;5.90;;;5.40;;
13897;SDS011;7019;50.766;4.474;2022-09-06T01:57:47;12.40;;;7.03;;
13897;SDS011;7019;50.766;4.474;2022-09-06T02:00:27;6.43;;;5.77;;
13897;SDS011;7019;50.766;4.474;2022-09-06T02:02:58;9.57;;;4.97;;
13897;SDS011;7019;50.766;4.474;2022-09-06T02:05:35;7.20;;;6.50;;
13897;SDS011;7019;50.766;4.474;2022-09-06T02:08:07;5.43;;;4.93;;
13897;SDS011;7019;50.766;4.474;2022-09-06T02:10:38;6.67;;;5.63;;
13897;SDS011;7019;50.766;4.474;2022-09-06T02:13:11;8.77;;;6.30;;
13897;SDS011;7019;50.766;4.474;2022-09-06T02:15:46;7.43;;;6.70;;
13897;SDS011;7019;50.766;4.474;2022-09-06T02:18:20;9.30;;;5.80;;
13897;SDS011;7019;50.766;4.474;2022-09-06T02:20:53;6.23;;;5.60;;
13897;SDS011;7019;50.766;4.474;2022-09-06T02:23:24;7.67;;;6.97;;
13897;SDS011;7019;50.766;4.474;2022-09-06T02:26:01;6.70;;;6.00;;
13897;SDS011;7019;50.766;4.474;2022-09-06T02:28:33;9.27;;;5.90;;
13897;SDS011;7019;50.766;4.474;2022-09-06T02:31:03;7.40;;;6.10;;
13897;SDS011;7019;50.766;4.474;2022-09-06T02:33:37;7.07;;;6.17;;
13897;SDS011;7019;50.766;4.474;2022-09-06T02:36:06;8.13;;;5.50;;
13897;SDS011;7019;50.766;4.474;2022-09-06T02:38:34;6.13;;;5.63;;
13897;SDS011;7019;50.766;4.474;2022-09-06T02:41:04;6.23;;;5.10;;
13897;SDS011;7019;50.766;4.474;2022-09-06T02:43:32;6.67;;;5.57;;
13897;SDS011;7019;50.766;4.474;2022-09-06T02:46:02;7.80;;;5.93;;
13897;SDS011;7019;50.766;4.474;2022-09-06T02:48:29;8.93;;;6.93;;
13897;SDS011;7019;50.766;4.474;2022-09-06T02:50:56;9.47;;;7.20;;
13897;SDS011;7019;50.766;4.474;2022-09-06T02:53:23;7.57;;;6.60;;
13897;SDS011;7019;50.766;4.474;2022-09-06T02:55:50;8.13;;;5.67;;
13897;SDS011;7019;50.766;4.474;2022-09-06T02:58:17;8.67;;;7.60;;
13897;SDS011;7019;50.766;4.474;2022-09-06T03:00:45;10.73;;;6.93;;
13897;SDS011;7019;50.766;4.474;2022-09-06T03:03:15;7.07;;;6.47;;
13897;SDS011;7019;50.766;4.474;2022-09-06T03:05:44;11.40;;;10.07;;
13897;SDS011;7019;50.766;4.474;2022-09-06T03:08:12;8.03;;;6.93;;
13897;SDS011;7019;50.766;4.474;2022-09-06T03:10:40;8.20;;;7.40;;
13897;SDS011;7019;50.766;4.474;2022-09-06T03:13:13;16.37;;;11.90;;
13897;SDS011;7019;50.766;4.474;2022-09-06T03:15:40;16.57;;;12.80;;
13897;SDS011;7019;50.766;4.474;2022-09-06T03:18:07;14.70;;;10.23;;
13897;SDS011;7019;50.766;4.474;2022-09-06T03:20:35;9.87;;;8.97;;
13897;SDS011;7019;50.766;4.474;2022-09-06T03:23:02;12.87;;;10.10;;
13897;SDS011;7019;50.766;4.474;2022-09-06T03:25:29;8.93;;;7.50;;
13897;SDS011;7019;50.766;4.474;2022-09-06T03:27:56;14.60;;;11.70;;
13897;SDS011;7019;50.766;4.474;2022-09-06T03:30:23;10.33;;;9.33;;
13897;SDS011;7019;50.766;4.474;2022-09-06T03:32:50;10.10;;;7.97;;
13897;SDS011;7019;50.766;4.474;2022-09-06T03:35:18;11.73;;;9.60;;
13897;SDS011;7019;50.766;4.474;2022-09-06T03:37:47;15.17;;;11.53;;
13897;SDS011;7019;50.766;4.474;2022-09-06T03:40:14;21.60;;;15.20;;
13897;SDS011;7019;50.766;4.474;2022-09-06T03:42:41;14.23;;;12.50;;
13897;SDS011;7019;50.766;4.474;2022-09-06T03:45:10;11.97;;;9.53;;
13897;SDS011;7019;50.766;4.474;2022-09-06T03:47:38;13.47;;;12.03;;
13897;SDS011;7019;50.766;4.474;2022-09-06T03:50:05;15.27;;;13.67;;
13897;SDS011;7019;50.766;4.474;2022-09-06T03:52:34;16.43;;;11.97;;
13897;SDS011;7019;50.766;4.474;2022-09-06T03:55:04;10.07;;;9.07;;
13897;SDS011;7019;50.766;4.474;2022-09-06T03:57:31;9.10;;;8.10;;
13897;SDS011;7019;50.766;4.474;2022-09-06T03:59:58;17.77;;;13.37;;
13897;SDS011;7019;50.766;4.474;2022-09-06T04:02:25;16.50;;;13.63;;
13897;SDS011;7019;50.766;4.474;2022-09-06T04:04:52;19.40;;;14.10;;
13897;SDS011;7019;50.766;4.474;2022-09-06T04:07:20;19.73;;;13.73;;
13897;SDS011;7019;50.766;4.474;2022-09-06T04:09:47;18.80;;;14.13;;
13897;SDS011;7019;50.766;4.474;2022-09-06T04:12:16;18.17;;;14.67;;
13897;SDS011;7019;50.766;4.474;2022-09-06T04:14:43;17.17;;;14.00;;
13897;SDS011;7019;50.766;4.474;2022-09-06T04:17:10;19.93;;;14.37;;
13897;SDS011;7019;50.766;4.474;2022-09-06T04:19:39;20.67;;;15.20;;
13897;SDS011;7019;50.766;4.474;2022-09-06T04:22:06;20.80;;;16.63;;
13897;SDS011;7019;50.766;4.474;2022-09-06T04:24:33;21.37;;;15.63;;
13897;SDS011;7019;50.766;4.474;2022-09-06T04:27:00;20.33;;;16.00;;
13897;SDS011;7019;50.766;4.474;2022-09-06T04:29:28;12.20;;;10.53;;
13897;SDS011;7019;50.766;4.474;2022-09-06T04:31:55;14.23;;;10.80;;
13897;SDS011;7019;50.766;4.474;2022-09-06T04:34:23;21.93;;;16.80;;
13897;SDS011;7019;50.766;4.474;2022-09-06T04:36:51;17.13;;;15.03;;
13897;SDS011;7019;50.766;4.474;2022-09-06T04:39:18;17.47;;;13.23;;
13897;SDS011;7019;50.766;4.474;2022-09-06T04:41:45;23.23;;;16.67;;
13897;SDS011;7019;50.766;4.474;2022-09-06T04:44:17;13.37;;;11.87;;
13897;SDS011;7019;50.766;4.474;2022-09-06T04:46:46;20.77;;;15.90;;
13897;SDS011;7019;50.766;4.474;2022-09-06T04:49:13;21.27;;;16.63;;
13897;SDS011;7019;50.766;4.474;2022-09-06T04:51:40;18.53;;;15.70;;
13897;SDS011;7019;50.766;4.474;2022-09-06T04:54:07;23.13;;;15.70;;
13897;SDS011;7019;50.766;4.474;2022-09-06T04:56:34;15.37;;;13.77;;
13897;SDS011;7019;50.766;4.474;2022-09-06T04:59:01;20.30;;;15.13;;
13897;SDS011;7019;50.766;4.474;2022-09-06T05:01:28;18.87;;;15.23;;
13897;SDS011;7019;50.766;4.474;2022-09-06T05:03:57;13.27;;;11.97;;
13897;SDS011;7019;50.766;4.474;2022-09-06T05:06:24;18.70;;;15.63;;
13897;SDS011;7019;50.766;4.474;2022-09-06T05:08:51;19.97;;;16.23;;
13897;SDS011;7019;50.766;4.474;2022-09-06T05:11:18;15.17;;;12.03;;
13897;SDS011;7019;50.766;4.474;2022-09-06T05:13:45;19.90;;;16.63;;
13897;SDS011;7019;50.766;4.474;2022-09-06T05:16:14;18.80;;;15.97;;
13897;SDS011;7019;50.766;4.474;2022-09-06T05:18:41;20.77;;;16.77;;
13897;SDS011;7019;50.766;4.474;2022-09-06T05:21:09;17.10;;;14.57;;
13897;SDS011;7019;50.766;4.474;2022-09-06T05:23:36;18.70;;;15.40;;
13897;SDS011;7019;50.766;4.474;2022-09-06T05:26:03;21.60;;;16.23;;
13897;SDS011;7019;50.766;4.474;2022-09-06T05:28:31;20.47;;;16.27;;
13897;SDS011;7019;50.766;4.474;2022-09-06T05:31:05;23.53;;;16.13;;
13897;SDS011;7019;50.766;4.474;2022-09-06T05:33:32;23.50;;;16.97;;
13897;SDS011;7019;50.766;4.474;2022-09-06T05:36:00;23.20;;;17.10;;
13897;SDS011;7019;50.766;4.474;2022-09-06T05:38:28;21.80;;;17.47;;
13897;SDS011;7019;50.766;4.474;2022-09-06T05:40:56;15.53;;;13.20;;
13897;SDS011;7019;50.766;4.474;2022-09-06T05:43:23;16.63;;;12.87;;
13897;SDS011;7019;50.766;4.474;2022-09-06T05:45:50;21.97;;;16.87;;
13897;SDS011;7019;50.766;4.474;2022-09-06T05:48:17;15.33;;;12.27;;
13897;SDS011;7019;50.766;4.474;2022-09-06T05:50:44;14.97;;;10.97;;
13897;SDS011;7019;50.766;4.474;2022-09-06T05:53:11;13.93;;;12.40;;
13897;SDS011;7019;50.766;4.474;2022-09-06T05:55:40;15.83;;;12.10;;
13897;SDS011;7019;50.766;4.474;2022-09-06T05:58:07;18.60;;;13.30;;
13897;SDS011;7019;50.766;4.474;2022-09-06T06:00:34;12.70;;;11.40;;
13897;SDS011;7019;50.766;4.474;2022-09-06T06:03:01;13.60;;;11.07;;
13897;SDS011;7019;50.766;4.474;2022-09-06T06:05:28;17.37;;;15.37;;
13897;SDS011;7019;50.766;4.474;2022-09-06T06:07:55;13.43;;;12.10;;
13897;SDS011;7019;50.766;4.474;2022-09-06T06:10:24;15.60;;;13.77;;
13897;SDS011;7019;50.766;4.474;2022-09-06T06:13:07;11.70;;;10.07;;
13897;SDS011;7019;50.766;4.474;2022-09-06T06:15:34;16.83;;;12.20;;
13897;SDS011;7019;50.766;4.474;2022-09-06T06:18:01;13.23;;;11.83;;
13897;SDS011;7019;50.766;4.474;2022-09-06T06:20:28;12.20;;;10.40;;
13897;SDS011;7019;50.766;4.474;2022-09-06T06:22:56;15.30;;;11.30;;
13897;SDS011;7019;50.766;4.474;2022-09-06T06:25:23;11.30;;;10.10;;
13897;SDS011;7019;50.766;4.474;2022-09-06T06:27:50;15.07;;;11.37;;
13897;SDS011;7019;50.766;4.474;2022-09-06T06:30:19;12.63;;;9.83;;
13897;SDS011;7019;50.766;4.474;2022-09-06T06:32:46;11.67;;;9.87;;
13897;SDS011;7019;50.766;4.474;2022-09-06T06:35:14;11.47;;;10.33;;
13897;SDS011;7019;50.766;4.474;2022-09-06T06:37:42;8.57;;;7.77;;
13897;SDS011;7019;50.766;4.474;2022-09-06T06:40:10;10.77;;;8.93;;
13897;SDS011;7019;50.766;4.474;2022-09-06T06:42:38;11.13;;;8.67;;
13897;SDS011;7019;50.766;4.474;2022-09-06T06:45:06;10.00;;;7.10;;
13897;SDS011;7019;50.766;4.474;2022-09-06T06:47:35;9.40;;;6.40;;
13897;SDS011;7019;50.766;4.474;2022-09-06T06:50:03;14.67;;;7.83;;
13897;SDS011;7019;50.766;4.474;2022-09-06T06:52:35;12.60;;;6.50;;
13897;SDS011;7019;50.766;4.474;2022-09-06T06:55:02;8.77;;;5.20;;
13897;SDS011;7019;50.766;4.474;2022-09-06T06:57:30;8.17;;;5.27;;
13897;SDS011;7019;50.766;4.474;2022-09-06T06:59:57;9.27;;;6.10;;
13897;SDS011;7019;50.766;4.474;2022-09-06T07:02:24;13.53;;;6.40;;
13897;SDS011;7019;50.766;4.474;2022-09-06T07:04:52;8.90;;;5.47;;
13897;SDS011;7019;50.766;4.474;2022-09-06T07:07:19;8.37;;;5.73;;
13897;SDS011;7019;50.766;4.474;2022-09-06T07:09:48;7.43;;;4.70;;
13897;SDS011;7019;50.766;4.474;2022-09-06T07:12:20;7.97;;;5.40;;
13897;SDS011;7019;50.766;4.474;2022-09-06T07:14:47;5.97;;;4.77;;
13897;SDS011;7019;50.766;4.474;2022-09-06T07:17:14;5.87;;;3.87;;
13897;SDS011;7019;50.766;4.474;2022-09-06T07:19:41;6.20;;;4.30;;
13897;SDS011;7019;50.766;4.474;2022-09-06T07:22:10;6.57;;;4.17;;
13897;SDS011;7019;50.766;4.474;2022-09-06T07:24:41;5.90;;;4.07;;
13897;SDS011;7019;50.766;4.474;2022-09-06T07:27:09;5.40;;;4.13;;
13897;SDS011;7019;50.766;4.474;2022-09-06T07:29:45;5.60;;;3.93;;
13897;SDS011;7019;50.766;4.474;2022-09-06T07:32:12;5.03;;;3.90;;
13897;SDS011;7019;50.766;4.474;2022-09-06T07:34:39;7.30;;;3.93;;
13897;SDS011;7019;50.766;4.474;2022-09-06T07:37:06;6.40;;;2.93;;
13897;SDS011;7019;50.766;4.474;2022-09-06T07:39:35;7.90;;;2.77;;
13897;SDS011;7019;50.766;4.474;2022-09-06T07:42:03;4.57;;;2.63;;
13897;SDS011;7019;50.766;4.474;2022-09-06T07:44:30;3.27;;;2.30;;
13897;SDS011;7019;50.766;4.474;2022-09-06T07:46:58;2.83;;;2.07;;
13897;SDS011;7019;50.766;4.474;2022-09-06T07:49:30;3.53;;;2.20;;
13897;SDS011;7019;50.766;4.474;2022-09-06T07:51:57;3.25;;;1.80;;
13897;SDS011;7019;50.766;4.474;2022-09-06T07:54:24;6.53;;;2.40;;
13897;SDS011;7019;50.766;4.474;2022-09-06T07:56:53;3.47;;;1.48;;
13897;SDS011;7019;50.766;4.474;2022-09-06T07:59:20;4.00;;;1.90;;
13897;SDS011;7019;50.766;4.474;2022-09-06T08:01:47;5.40;;;1.67;;
13897;SDS011;7019;50.766;4.474;2022-09-06T08:04:14;2.85;;;1.30;;
13897;SDS011;7019;50.766;4.474;2022-09-06T08:06:42;5.32;;;1.45;;
13897;SDS011;7019;50.766;4.474;2022-09-06T08:09:12;3.58;;;1.77;;
13897;SDS011;7019;50.766;4.474;2022-09-06T08:11:39;4.70;;;1.60;;
13897;SDS011;7019;50.766;4.474;2022-09-06T08:14:08;6.47;;;2.00;;
13897;SDS011;7019;50.766;4.474;2022-09-06T08:16:35;3.10;;;1.83;;
13897;SDS011;7019;50.766;4.474;2022-09-06T08:19:03;7.15;;;1.63;;
13897;SDS011;7019;50.766;4.474;2022-09-06T08:21:33;5.65;;;1.58;;
13897;SDS011;7019;50.766;4.474;2022-09-06T08:24:00;2.72;;;1.50;;
13897;SDS011;7019;50.766;4.474;2022-09-06T08:26:29;1.73;;;1.52;;
13897;SDS011;7019;50.766;4.474;2022-09-06T08:28:58;4.53;;;2.15;;
13897;SDS011;7019;50.766;4.474;2022-09-06T08:31:28;4.93;;;1.80;;
13897;SDS011;7019;50.766;4.474;2022-09-06T08:33:56;5.43;;;1.98;;
13897;SDS011;7019;50.766;4.474;2022-09-06T08:36:24;4.00;;;1.73;;
13897;SDS011;7019;50.766;4.474;2022-09-06T08:38:53;2.60;;;1.67;;
13897;SDS011;7019;50.766;4.474;2022-09-06T08:41:22;3.30;;;1.75;;
13897;SDS011;7019;50.766;4.474;2022-09-06T08:43:52;3.05;;;2.22;;
13897;SDS011;7019;50.766;4.474;2022-09-06T08:46:21;5.07;;;2.10;;
13897;SDS011;7019;50.766;4.474;2022-09-06T08:48:54;4.75;;;2.33;;
13897;SDS011;7019;50.766;4.474;2022-09-06T08:51:36;4.53;;;2.13;;
13897;SDS011;7019;50.766;4.474;2022-09-06T08:54:20;3.53;;;1.88;;
13897;SDS011;7019;50.766;4.474;2022-09-06T08:57:02;3.95;;;1.83;;
13897;SDS011;7019;50.766;4.474;2022-09-06T08:59:33;3.00;;;1.85;;
13897;SDS011;7019;50.766;4.474;2022-09-06T09:02:06;3.63;;;2.20;;
13897;SDS011;7019;50.766;4.474;2022-09-06T09:04:40;3.60;;;2.20;;
13897;SDS011;7019;50.766;4.474;2022-09-06T09:07:16;7.47;;;2.70;;
13897;SDS011;7019;50.766;4.474;2022-09-06T09:09:51;6.28;;;2.47;;
13897;SDS011;7019;50.766;4.474;2022-09-06T09:12:22;3.20;;;2.15;;
13897;SDS011;7019;50.766;4.474;2022-09-06T09:14:50;6.07;;;2.10;;
13897;SDS011;7019;50.766;4.474;2022-09-06T09:17:23;7.07;;;2.28;;
13897;SDS011;7019;50.766;4.474;2022-09-06T09:19:55;3.90;;;1.95;;
13897;SDS011;7019;50.766;4.474;2022-09-06T09:22:23;8.25;;;2.28;;
13897;SDS011;7019;50.766;4.474;2022-09-06T09:24:51;4.90;;;2.30;;
13897;SDS011;7019;50.766;4.474;2022-09-06T09:27:19;5.70;;;2.30;;
13897;SDS011;7019;50.766;4.474;2022-09-06T09:29:56;3.63;;;2.22;;
13897;SDS011;7019;50.766;4.474;2022-09-06T09:32:28;3.00;;;2.20;;
13897;SDS011;7019;50.766;4.474;2022-09-06T09:37:47;3.35;;;2.50;;
13897;SDS011;7019;50.766;4.474;2022-09-06T09:40:28;5.00;;;2.30;;
13897;SDS011;7019;50.766;4.474;2022-09-06T09:43:18;5.57;;;2.15;;
13897;SDS011;7019;50.766;4.474;2022-09-06T09:45:56;4.47;;;2.50;;
13897;SDS011;7019;50.766;4.474;2022-09-06T09:48:34;7.80;;;2.47;;
13897;SDS011;7019;50.766;4.474;2022-09-06T09:51:21;5.90;;;2.22;;
13897;SDS011;7019;50.766;4.474;2022-09-06T09:53:51;2.95;;;2.20;;
13897;SDS011;7019;50.766;4.474;2022-09-06T09:56:22;3.10;;;1.90;;
13897;SDS011;7019;50.766;4.474;2022-09-06T09:58:54;2.35;;;2.00;;
13897;SDS011;7019;50.766;4.474;2022-09-06T10:01:25;6.63;;;2.40;;
13897;SDS011;7019;50.766;4.474;2022-09-06T10:04:03;8.35;;;2.88;;
13897;SDS011;7019;50.766;4.474;2022-09-06T10:06:34;2.83;;;2.20;;
13897;SDS011;7019;50.766;4.474;2022-09-06T10:09:11;4.50;;;2.67;;
13897;SDS011;7019;50.766;4.474;2022-09-06T10:11:50;3.13;;;2.60;;
13897;SDS011;7019;50.766;4.474;2022-09-06T10:14:24;6.35;;;2.63;;
13897;SDS011;7019;50.766;4.474;2022-09-06T10:16:53;6.43;;;2.72;;
13897;SDS011;7019;50.766;4.474;2022-09-06T10:19:29;5.00;;;3.25;;
13897;SDS011;7019;50.766;4.474;2022-09-06T10:22:06;4.22;;;2.63;;
13897;SDS011;7019;50.766;4.474;2022-09-06T10:24:48;4.80;;;3.00;;
13897;SDS011;7019;50.766;4.474;2022-09-06T10:27:34;4.70;;;3.00;;
13897;SDS011;7019;50.766;4.474;2022-09-06T10:30:06;5.18;;;2.88;;
13897;SDS011;7019;50.766;4.474;2022-09-06T10:32:37;5.70;;;2.35;;
13897;SDS011;7019;50.766;4.474;2022-09-06T10:35:18;3.33;;;2.33;;
13897;SDS011;7019;50.766;4.474;2022-09-06T10:37:51;4.05;;;2.30;;
13897;SDS011;7019;50.766;4.474;2022-09-06T10:40:32;4.75;;;2.45;;
13897;SDS011;7019;50.766;4.474;2022-09-06T10:43:06;6.80;;;2.50;;
13897;SDS011;7019;50.766;4.474;2022-09-06T10:45:43;4.10;;;2.00;;
13897;SDS011;7019;50.766;4.474;2022-09-06T10:48:14;4.45;;;1.80;;
13897;SDS011;7019;50.766;4.474;2022-09-06T10:50:47;3.78;;;1.98;;
13897;SDS011;7019;50.766;4.474;2022-09-06T10:53:28;4.90;;;2.30;;
13897;SDS011;7019;50.766;4.474;2022-09-06T10:56:04;2.83;;;1.55;;
13897;SDS011;7019;50.766;4.474;2022-09-06T10:58:36;5.38;;;2.08;;
13897;SDS011;7019;50.766;4.474;2022-09-06T11:01:09;2.90;;;1.75;;
13897;SDS011;7019;50.766;4.474;2022-09-06T11:03:47;3.00;;;1.60;;
13897;SDS011;7019;50.766;4.474;2022-09-06T11:06:17;2.15;;;1.40;;
13897;SDS011;7019;50.766;4.474;2022-09-06T11:08:49;3.03;;;1.88;;
13897;SDS011;7019;50.766;4.474;2022-09-06T11:11:23;5.03;;;1.70;;
13897;SDS011;7019;50.766;4.474;2022-09-06T11:13:59;6.53;;;1.80;;
13897;SDS011;7019;50.766;4.474;2022-09-06T11:16:35;4.10;;;1.52;;
13897;SDS011;7019;50.766;4.474;2022-09-06T11:19:08;3.17;;;1.77;;
13897;SDS011;7019;50.766;4.474;2022-09-06T11:21:49;5.10;;;1.40;;
13897;SDS011;7019;50.766;4.474;2022-09-06T11:24:39;5.85;;;1.70;;
13897;SDS011;7019;50.766;4.474;2022-09-06T11:27:19;1.88;;;1.30;;
13897;SDS011;7019;50.766;4.474;2022-09-06T11:29:52;2.20;;;1.48;;
13897;SDS011;7019;50.766;4.474;2022-09-06T11:32:28;3.88;;;1.63;;
13897;SDS011;7019;50.766;4.474;2022-09-06T11:34:59;2.38;;;1.45;;
13897;SDS011;7019;50.766;4.474;2022-09-06T11:37:30;2.60;;;1.48;;
13897;SDS011;7019;50.766;4.474;2022-09-06T11:40:07;4.75;;;1.73;;
13897;SDS011;7019;50.766;4.474;2022-09-06T11:43:07;3.38;;;1.50;;
13897;SDS011;7019;50.766;4.474;2022-09-06T11:45:40;5.43;;;1.70;;
13897;SDS011;7019;50.766;4.474;2022-09-06T11:51:00;3.58;;;1.38;;
13897;SDS011;7019;50.766;4.474;2022-09-06T11:53:31;2.47;;;1.20;;
13897;SDS011;7019;50.766;4.474;2022-09-06T11:56:15;2.17;;;1.17;;
13897;SDS011;7019;50.766;4.474;2022-09-06T11:58:55;2.17;;;1.20;;
13897;SDS011;7019;50.766;4.474;2022-09-06T12:01:34;5.60;;;1.30;;
13897;SDS011;7019;50.766;4.474;2022-09-06T12:04:04;3.13;;;0.90;;
13897;SDS011;7019;50.766;4.474;2022-09-06T12:06:33;2.42;;;1.38;;
13897;SDS011;7019;50.766;4.474;2022-09-06T12:11:53;2.78;;;1.30;;
13897;SDS011;7019;50.766;4.474;2022-09-06T12:14:29;3.92;;;1.30;;
13897;SDS011;7019;50.766;4.474;2022-09-06T12:19:47;4.05;;;1.20;;
13897;SDS011;7019;50.766;4.474;2022-09-06T12:25:16;1.90;;;1.40;;
13897;SDS011;7019;50.766;4.474;2022-09-06T12:27:52;2.17;;;1.30;;
13897;SDS011;7019;50.766;4.474;2022-09-06T12:30:31;2.58;;;1.42;;
13897;SDS011;7019;50.766;4.474;2022-09-06T12:33:01;1.85;;;1.20;;
13897;SDS011;7019;50.766;4.474;2022-09-06T12:35:32;2.50;;;1.35;;
13897;SDS011;7019;50.766;4.474;2022-09-06T12:38:01;5.20;;;1.52;;
13897;SDS011;7019;50.766;4.474;2022-09-06T12:40:29;4.60;;;1.40;;
13897;SDS011;7019;50.766;4.474;2022-09-06T12:43:00;3.08;;;1.40;;
13897;SDS011;7019;50.766;4.474;2022-09-06T12:45:29;4.45;;;1.20;;
13897;SDS011;7019;50.766;4.474;2022-09-06T12:48:03;2.35;;;1.15;;
13897;SDS011;7019;50.766;4.474;2022-09-06T12:50:32;2.78;;;1.23;;
13897;SDS011;7019;50.766;4.474;2022-09-06T12:53:00;5.03;;;1.42;;
13897;SDS011;7019;50.766;4.474;2022-09-06T12:55:29;3.42;;;1.20;;
13897;SDS011;7019;50.766;4.474;2022-09-06T12:58:00;4.28;;;1.20;;
13897;SDS011;7019;50.766;4.474;2022-09-06T13:00:30;3.25;;;1.60;;
13897;SDS011;7019;50.766;4.474;2022-09-06T13:03:02;3.97;;;1.30;;
13897;SDS011;7019;50.766;4.474;2022-09-06T13:05:33;4.57;;;1.67;;
13897;SDS011;7019;50.766;4.474;2022-09-06T13:08:06;3.40;;;1.17;;
13897;SDS011;7019;50.766;4.474;2022-09-06T13:10:39;2.90;;;1.50;;
13897;SDS011;7019;50.766;4.474;2022-09-06T13:13:11;3.80;;;1.50;;
13897;SDS011;7019;50.766;4.474;2022-09-06T13:15:45;5.65;;;1.60;;
13897;SDS011;7019;50.766;4.474;2022-09-06T13:18:19;4.47;;;1.27;;
13897;SDS011;7019;50.766;4.474;2022-09-06T13:20:57;3.60;;;1.33;;
13897;SDS011;7019;50.766;4.474;2022-09-06T13:23:25;3.13;;;1.27;;
13897;SDS011;7019;50.766;4.474;2022-09-06T13:25:53;3.00;;;1.33;;
13897;SDS011;7019;50.766;4.474;2022-09-06T13:28:26;2.85;;;1.27;;
13897;SDS011;7019;50.766;4.474;2022-09-06T13:31:01;1.48;;;0.98;;
13897;SDS011;7019;50.766;4.474;2022-09-06T13:33:33;2.17;;;1.13;;
13897;SDS011;7019;50.766;4.474;2022-09-06T13:36:16;4.72;;;0.95;;
13897;SDS011;7019;50.766;4.474;2022-09-06T13:38:47;6.03;;;1.15;;
13897;SDS011;7019;50.766;4.474;2022-09-06T13:44:04;1.80;;;1.10;;
13897;SDS011;7019;50.766;4.474;2022-09-06T13:46:41;1.90;;;1.00;;
13897;SDS011;7019;50.766;4.474;2022-09-06T13:49:08;1.52;;;1.10;;
13897;SDS011;7019;50.766;4.474;2022-09-06T13:51:36;3.22;;;1.27;;
13897;SDS011;7019;50.766;4.474;2022-09-06T13:54:04;2.10;;;1.13;;
13897;SDS011;7019;50.766;4.474;2022-09-06T13:56:32;3.10;;;1.00;;
13897;SDS011;7019;50.766;4.474;2022-09-06T13:59:01;3.42;;;1.27;;
13897;SDS011;7019;50.766;4.474;2022-09-06T14:01:30;2.75;;;1.00;;
13897;SDS011;7019;50.766;4.474;2022-09-06T14:03:58;2.42;;;1.00;;
13897;SDS011;7019;50.766;4.474;2022-09-06T14:06:25;6.28;;;1.00;;
13897;SDS011;7019;50.766;4.474;2022-09-06T14:09:00;2.13;;;1.27;;
13897;SDS011;7019;50.766;4.474;2022-09-06T14:11:27;4.00;;;1.25;;
13897;SDS011;7019;50.766;4.474;2022-09-06T14:13:54;3.58;;;1.27;;
13897;SDS011;7019;50.766;4.474;2022-09-06T14:16:22;2.83;;;1.20;;
13897;SDS011;7019;50.766;4.474;2022-09-06T14:18:49;3.33;;;1.00;;
13897;SDS011;7019;50.766;4.474;2022-09-06T14:21:17;2.42;;;1.40;;
13897;SDS011;7019;50.766;4.474;2022-09-06T14:23:46;2.55;;;1.23;;
13897;SDS011;7019;50.766;4.474;2022-09-06T14:26:15;2.90;;;1.27;;
13897;SDS011;7019;50.766;4.474;2022-09-06T14:28:43;4.38;;;1.35;;
13897;SDS011;7019;50.766;4.474;2022-09-06T14:31:11;4.45;;;1.17;;
13897;SDS011;7019;50.766;4.474;2022-09-06T14:33:41;3.75;;;1.40;;
13897;SDS011;7019;50.766;4.474;2022-09-06T14:36:09;12.40;;;1.60;;
13897;SDS011;7019;50.766;4.474;2022-09-06T14:38:41;1.38;;;0.90;;
13897;SDS011;7019;50.766;4.474;2022-09-06T14:41:09;3.55;;;1.10;;
13897;SDS011;7019;50.766;4.474;2022-09-06T14:43:38;3.28;;;1.40;;
13897;SDS011;7019;50.766;4.474;2022-09-06T14:46:08;4.15;;;1.20;;
13897;SDS011;7019;50.766;4.474;2022-09-06T14:48:36;2.67;;;1.00;;
13897;SDS011;7019;50.766;4.474;2022-09-06T14:51:08;2.30;;;0.88;;
13897;SDS011;7019;50.766;4.474;2022-09-06T14:53:37;2.50;;;1.00;;
13897;SDS011;7019;50.766;4.474;2022-09-06T14:56:05;1.67;;;1.08;;
13897;SDS011;7019;50.766;4.474;2022-09-06T14:58:32;1.38;;;0.80;;
13897;SDS011;7019;50.766;4.474;2022-09-06T15:01:08;2.78;;;1.13;;
13897;SDS011;7019;50.766;4.474;2022-09-06T15:03:37;2.42;;;0.93;;
13897;SDS011;7019;50.766;4.474;2022-09-06T15:06:05;2.15;;;0.88;;
13897;SDS011;7019;50.766;4.474;2022-09-06T15:08:34;3.65;;;1.08;;
13897;SDS011;7019;50.766;4.474;2022-09-06T15:11:03;1.58;;;0.90;;
13897;SDS011;7019;50.766;4.474;2022-09-06T15:13:32;4.53;;;1.15;;
13897;SDS011;7019;50.766;4.474;2022-09-06T15:15:59;3.35;;;1.10;;
13897;SDS011;7019;50.766;4.474;2022-09-06T15:18:28;1.88;;;0.70;;
13897;SDS011;7019;50.766;4.474;2022-09-06T15:20:55;3.15;;;1.10;;
13897;SDS011;7019;50.766;4.474;2022-09-06T15:23:23;2.70;;;1.00;;
13897;SDS011;7019;50.766;4.474;2022-09-06T15:25:53;1.33;;;0.95;;
13897;SDS011;7019;50.766;4.474;2022-09-06T15:28:21;1.83;;;1.08;;
13897;SDS011;7019;50.766;4.474;2022-09-06T15:30:48;2.00;;;0.90;;
13897;SDS011;7019;50.766;4.474;2022-09-06T15:33:15;4.35;;;1.52;;
13897;SDS011;7019;50.766;4.474;2022-09-06T15:35:43;2.90;;;1.13;;